Shinsei Maru — JD2188 — position and weather

sailwx.info

Track history (hours):
 
Tides and Currents Weather Stations Pressure Air Temp Water Temp Dewpoint Dewpoint Depression Visibility Wind Speed Wind Dir Waves Ship Positions

Shinsei Maru

Last reported at 2014-Dec-15 09:25 UTC. Time now 2014-Dec-18 23:48 UTC.
Position N 35°07' E 139°45'.

Length 104 m; draft 6.5 m.

Type: Tanker. MMSI: 431301775.

Date/timePositionNaut miles runAvg speedWind from/ knotsBaromVisibWave heightAir tempDewpointWater temp
2014-Dec-15 09:25N 35°07' E 139°45'1112.5
2014-Dec-15 08:33N 35°18' E 139°44'1010.3
2014-Dec-15 07:33N 35°28' E 139°48'12 0.9
2014-Dec-14 17:25N 35°32' E 140°02'8 8.9
2014-Dec-14 16:33N 35°29' E 139°53'1312.6
2014-Dec-14 15:33N 35°19' E 139°44'24611.7
2014-Dec-13 18:33N 34°02' E 134°60'1414.4
2014-Dec-13 17:33N 34°16' E 134°58'1312.6
2014-Dec-13 16:33N 34°26' E 135°08'1313.2
2014-Dec-13 15:33N 34°33' E 135°22'3 3.2
2014-Dec-13 14:33N 34°33' E 135°26'0 0.0
2014-Dec-13 13:33N 34°33' E 135°26'0 0.0
2014-Dec-13 12:33N 34°33' E 135°26'0 0.0
2014-Dec-13 11:33N 34°33' E 135°26'0 0.0
2014-Dec-13 10:33N 34°33' E 135°26'0 0.0
2014-Dec-13 09:27N 34°33' E 135°26'0 0.0
2014-Dec-13 08:27N 34°33' E 135°26'0 0.0
2014-Dec-13 07:27N 34°33' E 135°26'0 0.0
2014-Dec-13 06:21N 34°33' E 135°26'0 0.0
2014-Dec-13 05:33N 34°33' E 135°26'0 0.0
2014-Dec-13 04:33N 34°33' E 135°26'3 3.4
2014-Dec-13 03:33N 34°33' E 135°22'2 2.2
2014-Dec-13 02:28N 34°32' E 135°19'0 0.0
2014-Dec-13 01:28N 34°32' E 135°19'0 0.0
2014-Dec-12 23:28N 34°32' E 135°19'0 0.0
2014-Dec-12 22:22N 34°32' E 135°19'0 0.0
2014-Dec-12 21:16N 34°32' E 135°19'0 0.0
2014-Dec-12 20:28N 34°32' E 135°19'0 0.0
2014-Dec-12 19:28N 34°32' E 135°19'0 0.0
2014-Dec-12 18:28N 34°32' E 135°19'0 0.2
2014-Dec-12 17:33N 34°32' E 135°19'1212.0
2014-Dec-12 16:33N 34°25' E 135°08'1312.8
2014-Dec-12 15:33N 34°14' E 134°59'1412.6
2014-Dec-12 14:28N 34°00' E 135°01'23610.2
2014-Dec-11 15:24N 35°03' E 139°37'1113.1
2014-Dec-11 14:33N 35°12' E 139°45'1212.2
2014-Dec-11 13:33N 35°24' E 139°43'1413.6
2014-Dec-11 12:33N 35°31' E 139°57'4 0.6
2014-Dec-11 06:25N 35°30' E 140°01'4 2.0
2014-Dec-11 04:33N 35°30' E 139°57'1313.3
2014-Dec-11 03:33N 35°21' E 139°45'  
2014-Dec-07 13:33N 35°08' E 139°44'1312.7
2014-Dec-07 12:33N 35°20' E 139°42'1111.2
2014-Dec-07 11:34N 35°31' E 139°46'0 0.1
2014-Dec-07 10:28N 35°31' E 139°46'0 0.0
2014-Dec-07 09:04N 35°31' E 139°46'0 0.0
2014-Dec-07 08:25N 35°31' E 139°46'0 0.0
2014-Dec-07 05:31N 35°31' E 139°46'0 0.0
2014-Dec-07 03:22N 35°31' E 139°46'0 0.0
2014-Dec-07 02:25N 35°31' E 139°46'0 0.0
2014-Dec-07 01:28N 35°31' E 139°46'0 0.0
2014-Dec-07 00:28N 35°31' E 139°46'1 0.7
2014-Dec-06 23:34N 35°31' E 139°46'5 4.4
2014-Dec-06 22:30N 35°27' E 139°43'0 0.0
2014-Dec-06 21:33N 35°27' E 139°43'0 0.0
2014-Dec-06 20:33N 35°27' E 139°43'0 0.0
2014-Dec-06 19:33N 35°27' E 139°43'0 0.0
2014-Dec-06 18:33N 35°27' E 139°43'0 0.0
2014-Dec-06 17:27N 35°27' E 139°43'0 0.0
2014-Dec-06 16:27N 35°27' E 139°43'0 0.0
2014-Dec-06 15:33N 35°27' E 139°43'0 0.1
2014-Dec-06 14:33N 35°27' E 139°43'6 6.1
2014-Dec-06 13:33N 35°21' E 139°45'  
Track history (hours):
 
Tides and Currents Weather Stations Pressure Air Temp Water Temp Dewpoint Dewpoint Depression Visibility Wind Speed Wind Dir Waves Ship Positions

Shinsei Maru

Last reported at 2014-Dec-15 09:25 UTC. Time now 2014-Dec-18 23:48 UTC.
Position N 35°07' E 139°45'.

Length 104 m; draft 6.5 m.

Type: Tanker. MMSI: 431301775.

Date/timePositionNaut miles runAvg speedWind from/ knotsBaromVisibWave heightAir tempDewpointWater temp
2014-Dec-15 09:25N 35°07' E 139°45'1112.5
2014-Dec-15 08:33N 35°18' E 139°44'1010.3
2014-Dec-15 07:33N 35°28' E 139°48'12 0.9
2014-Dec-14 17:25N 35°32' E 140°02'8 8.9
2014-Dec-14 16:33N 35°29' E 139°53'1312.6
2014-Dec-14 15:33N 35°19' E 139°44'24611.7
2014-Dec-13 18:33N 34°02' E 134°60'1414.4
2014-Dec-13 17:33N 34°16' E 134°58'1312.6
2014-Dec-13 16:33N 34°26' E 135°08'1313.2
2014-Dec-13 15:33N 34°33' E 135°22'3 3.2
2014-Dec-13 14:33N 34°33' E 135°26'0 0.0
2014-Dec-13 13:33N 34°33' E 135°26'0 0.0
2014-Dec-13 12:33N 34°33' E 135°26'0 0.0
2014-Dec-13 11:33N 34°33' E 135°26'0 0.0
2014-Dec-13 10:33N 34°33' E 135°26'0 0.0
2014-Dec-13 09:27N 34°33' E 135°26'0 0.0
2014-Dec-13 08:27N 34°33' E 135°26'0 0.0
2014-Dec-13 07:27N 34°33' E 135°26'0 0.0
2014-Dec-13 06:21N 34°33' E 135°26'0 0.0
2014-Dec-13 05:33N 34°33' E 135°26'0 0.0
2014-Dec-13 04:33N 34°33' E 135°26'3 3.4
2014-Dec-13 03:33N 34°33' E 135°22'2 2.2
2014-Dec-13 02:28N 34°32' E 135°19'0 0.0
2014-Dec-13 01:28N 34°32' E 135°19'0 0.0
2014-Dec-12 23:28N 34°32' E 135°19'0 0.0
2014-Dec-12 22:22N 34°32' E 135°19'0 0.0
2014-Dec-12 21:16N 34°32' E 135°19'0 0.0
2014-Dec-12 20:28N 34°32' E 135°19'0 0.0
2014-Dec-12 19:28N 34°32' E 135°19'0 0.0
2014-Dec-12 18:28N 34°32' E 135°19'0 0.2
2014-Dec-12 17:33N 34°32' E 135°19'1212.0
2014-Dec-12 16:33N 34°25' E 135°08'1312.8
2014-Dec-12 15:33N 34°14' E 134°59'1412.6
2014-Dec-12 14:28N 34°00' E 135°01'23610.2
2014-Dec-11 15:24N 35°03' E 139°37'1113.1
2014-Dec-11 14:33N 35°12' E 139°45'1212.2
2014-Dec-11 13:33N 35°24' E 139°43'1413.6
2014-Dec-11 12:33N 35°31' E 139°57'4 0.6
2014-Dec-11 06:25N 35°30' E 140°01'4 2.0
2014-Dec-11 04:33N 35°30' E 139°57'1313.3
2014-Dec-11 03:33N 35°21' E 139°45'  
2014-Dec-07 13:33N 35°08' E 139°44'1312.7
2014-Dec-07 12:33N 35°20' E 139°42'1111.2
2014-Dec-07 11:34N 35°31' E 139°46'0 0.1
2014-Dec-07 10:28N 35°31' E 139°46'0 0.0
2014-Dec-07 09:04N 35°31' E 139°46'0 0.0
2014-Dec-07 08:25N 35°31' E 139°46'0 0.0
2014-Dec-07 05:31N 35°31' E 139°46'0 0.0
2014-Dec-07 03:22N 35°31' E 139°46'0 0.0
2014-Dec-07 02:25N 35°31' E 139°46'0 0.0
2014-Dec-07 01:28N 35°31' E 139°46'0 0.0
2014-Dec-07 00:28N 35°31' E 139°46'1 0.7
2014-Dec-06 23:34N 35°31' E 139°46'5 4.4
2014-Dec-06 22:30N 35°27' E 139°43'0 0.0
2014-Dec-06 21:33N 35°27' E 139°43'0 0.0
2014-Dec-06 20:33N 35°27' E 139°43'0 0.0
2014-Dec-06 19:33N 35°27' E 139°43'0 0.0
2014-Dec-06 18:33N 35°27' E 139°43'0 0.0
2014-Dec-06 17:27N 35°27' E 139°43'0 0.0
2014-Dec-06 16:27N 35°27' E 139°43'0 0.0
2014-Dec-06 15:33N 35°27' E 139°43'0 0.1
2014-Dec-06 14:33N 35°27' E 139°43'6 6.1
2014-Dec-06 13:33N 35°21' E 139°45'  

Dump ship's entire track history